createdAt,value
2019-01-30T00:09:49.869Z,0.22
2019-01-30T00:19:49.873Z,0.15
2019-01-30T00:29:49.971Z,0.51
2019-01-30T00:39:49.809Z,0.43
2019-01-30T00:49:49.864Z,0.49
2019-01-30T00:59:49.921Z,0.41
2019-01-30T01:09:49.923Z,0.36
2019-01-30T01:19:49.938Z,0.44
2019-01-30T01:29:49.867Z,0.57
2019-01-30T01:39:51.003Z,0.62
2019-01-30T01:49:50.422Z,0.57
2019-01-30T01:59:50.553Z,0.49
2019-01-30T02:09:50.155Z,0.52
2019-01-30T02:19:49.912Z,0.64
2019-01-30T02:29:50.159Z,1.55
2019-01-30T02:39:49.962Z,1.01
2019-01-30T02:49:50.698Z,1.04
2019-01-30T02:59:49.908Z,1.22
2019-01-30T03:09:49.946Z,1.28
2019-01-30T03:19:50.820Z,2.00
2019-01-30T03:29:49.819Z,0.73
2019-01-30T03:39:50.703Z,0.61
2019-01-30T03:49:49.853Z,0.99
2019-01-30T03:59:49.798Z,1.22
2019-01-30T04:09:49.827Z,0.95
2019-01-30T04:19:49.880Z,0.61
2019-01-30T04:29:49.926Z,0.19
2019-01-30T04:39:51.782Z,0.15
2019-01-30T04:49:49.941Z,0.22
2019-01-30T04:59:49.828Z,0.39
2019-01-30T05:09:49.859Z,0.23
2019-01-30T05:19:49.816Z,0.32
2019-01-30T05:29:49.842Z,0.49
2019-01-30T05:39:49.813Z,0.71
2019-01-30T05:49:49.819Z,1.24
2019-01-30T05:59:49.818Z,1.12
2019-01-30T06:09:49.902Z,0.32
2019-01-30T06:19:49.874Z,0.06
2019-01-30T06:29:49.916Z,0.18
2019-01-30T06:39:49.807Z,0.25
2019-01-30T06:49:52.524Z,0.25
2019-01-30T06:59:49.875Z,0.07
2019-01-30T07:09:50.937Z,0.04
2019-01-30T07:19:49.842Z,0.08
2019-01-30T07:29:49.803Z,0.02
2019-01-30T07:39:49.986Z,0.06
2019-01-30T07:49:49.714Z,0.22
2019-01-30T07:59:49.745Z,0.07
2019-01-30T08:09:49.747Z,0.05
2019-01-30T08:19:51.954Z,0.07
2019-01-30T08:29:49.898Z,0.07
2019-01-30T08:39:49.878Z,0.04
2019-01-30T08:49:50.546Z,0.02
2019-01-30T08:59:49.891Z,0.01
2019-01-30T09:09:49.757Z,0.10
2019-01-30T09:19:49.802Z,0.02
2019-01-30T09:29:49.832Z,0.04
2019-01-30T09:39:49.821Z,0.08
2019-01-30T09:49:49.795Z,0.03
2019-01-30T09:59:49.805Z,0.01
2019-01-30T10:09:49.904Z,0.00
2019-01-30T10:19:49.765Z,0.00
2019-01-30T10:29:50.380Z,0.00
2019-01-30T10:39:49.719Z,0.00
2019-01-30T10:49:49.902Z,0.00
2019-01-30T10:59:49.802Z,0.00
2019-01-30T11:09:51.468Z,0.02
2019-01-30T11:19:49.796Z,0.05
2019-01-30T11:29:49.882Z,0.03
2019-01-30T11:39:49.605Z,0.01
2019-01-30T11:49:50.562Z,0.01
2019-01-30T11:59:49.871Z,0.07
2019-01-30T12:09:49.812Z,0.12
2019-01-30T12:19:49.744Z,0.39
2019-01-30T12:29:49.654Z,0.59
2019-01-30T12:39:49.802Z,0.54
2019-01-30T12:49:49.636Z,0.68
2019-01-30T12:59:49.801Z,0.60
2019-01-30T13:09:49.843Z,1.08
2019-01-30T13:19:49.738Z,0.87
2019-01-30T13:29:49.774Z,1.21
2019-01-30T13:39:49.779Z,0.57
2019-01-30T13:49:49.737Z,0.81
2019-01-30T13:59:49.878Z,1.48
2019-01-30T14:09:49.739Z,1.20
2019-01-30T14:19:51.114Z,1.37
2019-01-30T14:29:58.160Z,1.73
2019-01-30T14:39:51.899Z,1.56
2019-01-30T14:49:49.737Z,1.88
2019-01-30T14:59:49.752Z,1.92
2019-01-30T15:09:49.768Z,1.56
2019-01-30T15:19:49.785Z,1.86
2019-01-30T15:29:49.730Z,2.18
2019-01-30T15:39:49.630Z,2.27
2019-01-30T15:49:49.786Z,1.87
2019-01-30T15:59:49.636Z,1.78
2019-01-30T16:09:49.762Z,1.41
2019-01-30T16:19:50.457Z,1.83
2019-01-30T16:29:49.776Z,2.06
2019-01-30T16:39:49.755Z,2.04
2019-01-30T16:49:49.657Z,2.10
2019-01-30T16:59:49.707Z,1.89
2019-01-30T17:09:49.643Z,1.87
2019-01-30T17:19:49.682Z,2.02
2019-01-30T17:29:49.658Z,1.80
2019-01-30T17:39:49.766Z,2.82
2019-01-30T17:49:49.669Z,3.17
2019-01-30T17:59:53.259Z,3.47
2019-01-30T18:09:49.736Z,3.38
2019-01-30T18:19:49.773Z,3.02
2019-01-30T18:29:49.702Z,3.24
2019-01-30T18:39:49.847Z,2.89
2019-01-30T18:49:49.604Z,3.84
2019-01-30T18:59:49.749Z,3.49
2019-01-30T19:09:49.695Z,3.87
2019-01-30T19:19:49.663Z,3.42
2019-01-30T19:29:49.704Z,2.70
2019-01-30T19:39:49.611Z,3.36
2019-01-30T19:49:49.675Z,3.23
2019-01-30T19:59:49.594Z,3.63
2019-01-30T20:09:49.772Z,3.32
2019-01-30T20:19:49.629Z,3.02
2019-01-30T20:29:50.035Z,2.77
2019-01-30T20:39:49.660Z,2.15
2019-01-30T20:49:50.704Z,2.48
2019-01-30T20:59:49.887Z,2.28
2019-01-30T21:09:49.695Z,2.58
2019-01-30T21:19:49.673Z,2.33
2019-01-30T21:29:49.657Z,2.12
2019-01-30T21:39:49.632Z,2.15
2019-01-30T21:49:50.215Z,2.49
2019-01-30T21:59:49.627Z,2.67
2019-01-30T22:09:49.828Z,2.23
2019-01-30T22:19:49.597Z,1.77
2019-01-30T22:29:50.634Z,1.54
2019-01-30T22:39:49.607Z,2.22
2019-01-30T22:49:49.614Z,1.64
2019-01-30T22:59:49.626Z,1.75
2019-01-30T23:09:49.589Z,2.36
2019-01-30T23:19:49.567Z,2.10
2019-01-30T23:29:49.550Z,1.85
2019-01-30T23:39:49.496Z,1.84
2019-01-30T23:49:49.562Z,1.43
2019-01-30T23:59:49.432Z,1.54
